Latest Weather Observations for Hamilton

IDV60801

Issued at 10:12 am EST Wednesday 24 July 2024 (issued every 10 minutes, with the page automatically refreshed every 10 minutes)

About weather observations | Map of weather stations | Latest weather observations for VIC | Other Formats
Station Details ID: 090173 Name: HAMILTON AIRPORT Lat: -37.65 Lon: 142.06 Height: 241.1 m
Data from the previous 72 hours. | See also: Recent months at Hamilton
Date/Time
EST
Temp
°C
App
Temp
°C
Dew
Point
°C
Rel
Hum
%
Delta-T
°C
Wind Press
QNH
hPa
Press
MSL
hPa
Rain since
9am
mm
Dir  Spd
km/h
Gust
km/h
Spd
kts
Gust
kts
24/10:00am 10.7 3.8 4.6 66 2.8 N 30 44 16 24 1014.4 1014.8 0.0
24/09:30am 9.6 3.3 3.8 67 2.6 N 26 32 14 17 1014.6 1015.0 0.0
24/09:00am 8.8 2.8 3.4 69 2.4 N 24 32 13 17 1014.8 1015.2 0.0
24/08:30am 8.3 2.2 3.0 69 2.3 N 24 32 13 17 1014.9 1015.3 0.0
24/08:00am 8.0 1.9 2.7 69 2.3 N 24 30 13 16 1015.1 1015.6 0.0
24/07:30am 8.1 1.2 2.4 67 2.4 N 28 35 15 19 1015.4 1015.8 0.0
24/07:00am 8.6 0.7 2.0 63 2.8 N 33 44 18 24 1015.5 1015.9 0.0
24/06:30am 7.9 1.2 1.7 65 2.6 N 26 32 14 17 1015.6 1016.0 0.0
24/06:00am 8.1 1.9 1.9 65 2.6 N 24 28 13 15 1015.7 1016.1 0.0
24/05:30am 9.5 2.4 1.4 57 3.4 N 28 37 15 20 1015.7 1016.1 0.0
24/05:00am 9.9 1.8 1.3 55 3.6 N 33 43 18 23 1015.5 1015.9 0.0
24/04:30am 10.0 2.1 1.1 54 3.7 N 32 39 17 21 1015.8 1016.2 0.0
24/04:00am 10.6 2.5 1.2 52 4.0 N 33 44 18 24 1015.9 1016.3 0.0
24/03:42am 10.9 3.0 1.2 51 4.1 N 32 50 17 27 1016.0 1016.4 0.0
24/03:30am 10.5 2.6 1.1 52 4.0 N 32 48 17 26 1016.0 1016.4 0.0
24/03:00am 10.7 2.6 1.3 52 4.0 N 33 39 18 21 1016.3 1016.7 0.0
24/02:30am 10.0 3.3 1.4 55 3.6 N 26 32 14 17 1016.5 1016.9 0.0
24/02:00am 9.6 2.5 1.3 56 3.5 N 28 39 15 21 1016.6 1017.0 0.0
24/01:30am 9.3 2.2 1.2 57 3.4 N 28 35 15 19 1016.7 1017.1 0.0
24/01:00am 9.1 2.4 1.3 58 3.2 N 26 32 14 17 1017.1 1017.5 0.0
24/12:30am 9.5 3.1 1.2 56 3.5 N 24 30 13 16 1017.2 1017.6 0.0
24/12:00am 9.3 3.4 1.5 58 3.3 N 22 30 12 16 1017.4 1017.8 0.0
 
Date/Time
EST
Temp
°C
App
Temp
°C
Dew
Point
°C
Rel
Hum
%
Delta-T
°C
Wind Press
QNH
hPa
Press
MSL
hPa
Rain since
9am
mm
Dir  Spd
km/h
Gust
km/h
Spd
kts
Gust
kts
23/11:30pm 9.3 3.0 1.5 58 3.3 N 24 28 13 15 1017.7 1018.1 0.0
23/11:00pm 9.1 3.2 2.0 61 3.0 N 22 28 12 15 1017.8 1018.2 0.0
23/10:30pm 9.1 2.9 2.4 63 2.9 N 24 28 13 15 1017.9 1018.3 0.0
23/10:00pm 9.2 3.9 2.8 64 2.8 N 20 22 11 12 1018.2 1018.6 0.0
23/09:30pm 9.4 3.7 2.7 63 2.9 N 22 28 12 15 1018.3 1018.7 0.0
23/09:00pm 10.2 4.5 2.8 60 3.2 N 22 26 12 14 1018.6 1019.1 0.0
23/08:30pm 11.0 4.5 2.6 56 3.7 N 26 32 14 17 1018.6 1019.1 0.0
23/08:00pm 11.3 5.1 2.3 54 3.9 N 24 33 13 18 1018.8 1019.3 0.0
23/07:30pm 11.4 4.5 2.4 54 3.9 N 28 35 15 19 1018.7 1019.2 0.0
23/07:00pm 11.9 5.3 2.1 51 4.3 N 26 32 14 17 1018.6 1019.1 0.0
23/06:30pm 12.3 5.2 1.6 48 4.6 N 28 33 15 18 1018.5 1018.9 0.0
23/06:00pm 11.9 6.6 1.8 50 4.4 N 19 22 10 12 1018.3 1018.7 0.0
23/05:30pm 13.1 7.1 0.8 43 5.3 N 22 28 12 15 1018.0 1018.4 0.0
23/05:00pm 14.5 7.7 0.7 39 6.0 N 26 32 14 17 1018.3 1018.7 0.0
23/04:30pm 15.8 8.5 0.0 34 6.8 N 28 35 15 19 1018.3 1018.7 0.0
23/04:00pm 16.1 8.5 0.3 34 6.9 NNW 30 37 16 20 1018.5 1018.9 0.0
23/03:30pm 16.5 8.2 -0.2 32 7.2 NNW 33 46 18 25 1018.6 1019.1 0.0
23/03:00pm 16.5 9.0 3.2 41 6.2 N 32 41 17 22 1018.9 1019.4 0.0
23/02:30pm 16.2 8.9 2.6 40 6.2 NNW 30 41 16 22 1019.0 1019.5 0.0
23/02:00pm 15.9 8.0 4.3 46 5.5 N 35 44 19 24 1019.3 1019.8 0.0
23/01:43pm 15.6 8.2 4.9 49 5.1 N 33 52 18 28 1019.6 1020.0 0.0
23/01:30pm 15.5 7.8 5.4 51 4.9 N 35 43 19 23 1019.8 1020.2 0.0
23/01:00pm 15.2 6.6 4.9 50 4.9 N 39 50 21 27 1020.1 1020.5 0.0
23/12:30pm 14.6 6.7 4.6 51 4.7 N 35 48 19 26 1020.5 1020.9 0.0
23/12:00pm 13.8 4.8 4.4 53 4.4 N 41 50 22 27 1021.0 1021.4 0.0
23/11:30am 13.4 5.7 5.3 58 3.8 N 35 50 19 27 1021.4 1021.8 0.0
23/11:00am 12.8 4.8 5.7 62 3.4 N 37 44 20 24 1021.7 1022.1 0.0
23/10:36am 12.0 3.8 4.7 61 3.4 N 37 56 20 30 1021.8 1022.2 0.0
23/10:30am 12.3 4.8 6.1 66 3.0 N 35 44 19 24 1021.9 1022.3 0.0
23/10:00am 11.3 4.0 5.6 68 2.7 N 33 43 18 23 1022.0 1022.4 0.0
23/09:30am 10.2 4.4 6.4 77 1.8 N 26 35 14 19 1021.9 1022.3 0.0
23/09:00am 9.0 3.1 5.7 80 1.5 N 26 33 14 18 1021.7 1022.1 0.4
23/08:30am 7.6 2.8 5.6 87 0.9 N 20 26 11 14 1021.6 1022.0 0.4
23/08:00am 7.2 2.0 5.5 89 0.8 N 22 26 12 14 1021.6 1022.0 0.4
23/07:30am 6.9 2.1 5.5 91 0.6 N 20 24 11 13 1021.5 1021.9 0.4
23/07:00am 7.0 2.2 5.8 92 0.5 N 20 24 11 13 1021.4 1021.8 0.4
23/06:30am 7.5 2.5 6.3 92 0.6 N 22 26 12 14 1021.2 1021.6 0.4
23/06:00am 7.8 2.7 6.1 89 0.8 N 22 26 12 14 1021.1 1021.5 0.4
23/05:30am 8.3 3.4 6.8 90 0.7 N 22 26 12 14 1021.1 1021.5 0.4
23/05:00am 8.7 4.2 7.0 89 0.8 N 20 28 11 15 1021.1 1021.5 0.4
23/04:30am 9.2 4.8 7.6 90 0.8 N 20 24 11 13 1021.2 1021.6 0.4
23/04:00am 9.4 5.1 7.8 90 0.8 N 20 24 11 13 1021.2 1021.6 0.4
23/03:30am 9.6 5.0 8.0 90 0.8 N 22 26 12 14 1021.2 1021.6 0.4
23/03:00am 9.9 5.7 8.3 90 0.8 N 20 26 11 14 1021.4 1021.8 0.4
23/02:30am 10.0 5.5 8.6 91 0.7 N 22 30 12 16 1021.5 1021.9 0.4
23/02:00am 10.4 6.0 8.8 90 0.8 N 22 28 12 15 1021.6 1022.0 0.4
23/01:30am 10.5 6.5 9.1 91 0.7 N 20 26 11 14 1021.6 1022.0 0.4
23/01:00am 10.7 6.8 9.5 92 0.6 N 20 24 11 13 1021.8 1022.2 0.4
23/12:30am 10.7 7.0 10.1 96 0.3 N 20 26 11 14 1022.2 1022.7 0.4
23/12:00am 10.7 7.1 10.4 98 0.2 N 20 24 11 13 1022.4 1022.9 0.4
 
Date/Time
EST
Temp
°C
App
Temp
°C
Dew
Point
°C
Rel
Hum
%
Delta-T
°C
Wind Press
QNH
hPa
Press
MSL
hPa
Rain since
9am
mm
Dir  Spd
km/h
Gust
km/h
Spd
kts
Gust
kts
22/11:30pm 11.2 6.4 10.4 95 0.4 NNW 26 39 14 21 1022.4 1022.9 0.4
22/11:00pm 11.4 5.7 9.8 90 0.8 NNW 30 44 16 24 1022.6 1023.1 0.4
22/10:58pm 11.5 6.2 9.8 89 0.9 NNW 28 44 15 24 1022.6 1023.1 0.4
22/10:30pm 11.5 7.9 9.8 89 0.9 NNW 19 26 10 14 1022.5 1023.0 0.4
22/10:00pm 11.0 7.2 9.8 92 0.6 N 20 28 11 15 1022.5 1023.0 0.4
22/09:30pm 11.5 7.0 9.9 90 0.8 N 24 28 13 15 1022.4 1022.9 0.4
22/09:00pm 11.9 7.4 10.1 89 0.9 N 24 32 13 17 1022.3 1022.8 0.4
22/08:30pm 12.0 8.4 10.4 90 0.8 NNW 20 26 11 14 1022.2 1022.7 0.4
22/08:00pm 12.3 8.7 10.5 89 0.9 NNW 20 24 11 13 1022.2 1022.7 0.4
22/07:30pm 11.9 9.3 10.6 92 0.7 NNW 15 19 8 10 1022.0 1022.4 0.4
22/07:00pm 11.5 8.8 10.2 92 0.7 NNW 15 17 8 9 1021.7 1022.1 0.4
22/06:30pm 12.3 9.6 10.5 89 0.9 NNW 15 20 8 11 1021.5 1021.9 0.4
22/06:00pm 12.8 9.2 10.5 86 1.2 NNW 20 30 11 16 1021.3 1021.7 0.4
22/05:30pm 13.1 9.5 10.5 84 1.4 NNW 20 26 11 14 1021.1 1021.5 0.4
22/05:00pm 13.9 10.0 10.7 81 1.7 NNW 22 30 12 16 1021.0 1021.4 0.4
22/04:30pm 14.2 9.0 10.4 78 2.0 NW 28 37 15 20 1020.8 1021.2 0.4
22/04:00pm 14.6 9.3 11.2 80 1.8 NNW 30 43 16 23 1020.5 1020.9 0.4
22/03:30pm 14.3 10.7 11.8 85 1.4 NNW 22 30 12 16 1020.4 1020.8 0.4
22/03:00pm 13.8 9.0 11.8 88 1.1 NNW 28 41 15 22 1020.5 1020.9 0.4
22/02:42pm 13.2 9.0 12.3 94 0.5 NNW 26 33 14 18 1020.5 1020.9 0.4
22/02:30pm 12.9 8.7 12.3 96 0.3 NNW 26 33 14 18 1020.6 1021.0 0.4
22/02:00pm 12.5 8.3 12.5 100 0.0 NNW 26 33 14 18 1020.7 1021.1 0.4
22/01:30pm 12.4 9.4 12.4 100 0.0 NNW 20 28 11 15 1020.9 1021.3 0.4
22/01:00pm 11.6 8.3 11.6 100 0.0 N 20 24 11 13 1021.2 1021.6 0.2
22/12:51pm 11.6 8.3 11.6 100 0.0 N 20 24 11 13 1021.3 1021.7 0.2
22/12:30pm 11.4 7.7 11.4 100 0.0 N 22 28 12 15 1021.5 1021.9 0.2
22/12:29pm 11.3 7.5 11.3 100 0.0 N 22 28 12 15 1021.5 1021.9 0.2
22/12:00pm 11.2 7.4 11.2 100 0.0 NNW 22 30 12 16 1021.8 1022.2 0.2
22/11:53am 11.2 7.0 11.2 100 0.0 NNW 24 28 13 15 1021.9 1022.3 0.2
22/11:32am 11.2 7.0 11.0 99 0.1 N 24 32 13 17 1021.9 1022.3 0.2
22/11:30am 11.1 6.8 10.9 99 0.1 N 24 32 13 17 1021.9 1022.3 0.2
22/11:00am 11.0 6.8 11.0 100 0.0 NNW 24 32 13 17 1022.0 1022.4 0.2
22/10:30am 10.8 6.9 10.8 100 0.0 N 22 28 12 15 1021.9 1022.3 0.0
22/10:08am 10.5 6.1 10.5 100 0.0 N 24 32 13 17 1021.8 1022.2 0.0
22/10:00am 10.3 5.9 10.3 100 0.0 NNW 24 30 13 16 1021.7 1022.1 0.0
22/09:51am 10.3 5.9 10.3 100 0.0 NNW 24 30 13 16 1021.6 1022.0 0.0
22/09:30am 10.3 6.6 10.3 100 0.0 NNW 20 26 11 14 1021.5 1021.9 0.0
22/09:00am 9.8 5.2 9.8 100 0.0 NNW 24 30 13 16 1021.2 1021.6 11.6
22/08:30am 9.9 6.1 9.9 100 0.0 N 20 24 11 13 1020.9 1021.3 11.6
22/08:00am 9.7 5.5 9.7 100 0.0 NNW 22 28 12 15 1020.7 1021.1 11.6
22/07:53am 9.7 5.5 9.7 100 0.0 NNW 22 30 12 16 1020.5 1020.9 11.6
22/07:32am 9.8 5.2 9.8 100 0.0 N 24 28 13 15 1020.2 1020.6 11.0
22/07:30am 9.9 5.7 9.9 100 0.0 N 22 28 12 15 1020.1 1020.5 11.0
22/07:00am 10.5 6.1 10.3 99 0.1 NNW 24 30 13 16 1019.8 1020.2 10.6
22/06:30am 10.7 6.7 10.5 99 0.1 NNW 22 28 12 15 1019.6 1020.0 10.4
22/06:00am 10.8 6.1 10.6 99 0.1 NNW 26 33 14 18 1019.2 1019.7 10.4
22/05:30am 10.9 7.3 10.7 99 0.1 NNW 20 26 11 14 1019.0 1019.5 10.2
22/05:00am 11.0 6.7 10.7 98 0.2 NNW 24 32 13 17 1019.0 1019.5 10.2
22/04:30am 10.7 6.7 10.4 98 0.2 NNW 22 30 12 16 1018.9 1019.4 10.2
22/04:19am 10.5 6.8 10.0 97 0.3 NNW 20 26 11 14 1018.9 1019.4 10.2
22/04:00am 10.5 6.3 9.6 94 0.5 NNW 22 32 12 17 1019.1 1019.6 10.2
22/03:30am 10.5 6.6 9.6 94 0.5 NNW 20 26 11 14 1018.9 1019.4 10.2
22/03:00am 10.8 6.7 10.0 95 0.4 NW 22 32 12 17 1018.9 1019.4 10.2
22/02:30am 11.0 6.6 10.5 97 0.3 NW 24 30 13 16 1018.8 1019.3 10.2
22/02:00am 11.0 7.1 10.8 99 0.1 NW 22 30 12 16 1018.9 1019.4 10.2
22/01:45am 11.0 6.3 10.8 99 0.1 NW 26 33 14 18 1018.9 1019.4 10.2
22/01:30am 11.0 6.7 10.8 99 0.1 NNW 24 32 13 17 1019.0 1019.5 10.2
22/01:22am 11.0 6.7 10.8 99 0.1 NNW 24 30 13 16 1018.9 1019.4 10.2
22/01:00am 10.8 6.8 10.6 99 0.1 NNW 22 32 12 17 1018.8 1019.3 10.2
22/12:30am 10.8 6.5 10.6 99 0.1 NNW 24 30 13 16 1019.0 1019.5 10.2
22/12:00am 10.8 7.4 10.6 99 0.1 NNW 19 24 10 13 1019.1 1019.6 10.2
 
Date/Time
EST
Temp
°C
App
Temp
°C
Dew
Point
°C
Rel
Hum
%
Delta-T
°C
Wind Press
QNH
hPa
Press
MSL
hPa
Rain since
9am
mm
Dir  Spd
km/h
Gust
km/h
Spd
kts
Gust
kts
21/11:45pm 11.0 7.1 10.8 99 0.1 NNW 22 28 12 15 1019.3 1019.8 10.2
21/11:30pm 11.0 5.3 11.0 100 0.0 NW 32 46 17 25 1019.4 1019.9 10.0
21/11:17pm 10.9 7.0 10.9 100 0.0 NNW 22 32 12 17 1019.1 1019.6 9.6
21/11:00pm 10.8 6.5 10.8 100 0.0 NNW 24 30 13 16 1019.0 1019.5 8.4
21/10:30pm 10.8 7.2 10.6 99 0.1 NNW 20 26 11 14 1019.1 1019.6 6.8
21/10:00pm 10.7 7.1 10.7 100 0.0 NNW 20 28 11 15 1019.0 1019.5 5.8
21/09:39pm 10.8 5.7 10.6 99 0.1 NNW 28 35 15 19 1018.9 1019.4 5.2
21/09:30pm 10.9 6.2 10.7 99 0.1 NNW 26 33 14 18 1018.9 1019.4 4.8
21/09:03pm 11.1 6.8 10.9 99 0.1 NNW 24 32 13 17 1018.8 1019.3 3.8
21/09:00pm 11.1 6.8 10.9 99 0.1 NNW 24 33 13 18 1018.8 1019.3 3.6
21/08:30pm 11.3 6.3 10.8 97 0.3 NNW 28 37 15 20 1018.4 1018.8 3.6
21/08:00pm 11.5 6.8 10.6 94 0.5 NNW 26 33 14 18 1018.2 1018.6 3.6
21/07:30pm 11.6 7.3 10.7 94 0.5 NNW 24 33 13 18 1018.1 1018.5 3.6
21/07:00pm 11.5 7.6 10.7 95 0.4 NNW 22 28 12 15 1017.9 1018.3 3.6
21/06:30pm 11.6 7.3 10.8 95 0.4 NNW 24 33 13 18 1017.5 1017.9 3.6
21/06:00pm 11.8 7.9 10.9 94 0.5 NW 22 32 12 17 1017.6 1018.0 3.4
21/05:30pm 12.0 7.7 10.7 92 0.7 NW 24 32 13 17 1017.3 1017.7 3.0
21/05:00pm 12.1 8.0 11.3 95 0.4 NNW 24 33 13 18 1017.0 1017.4 2.8
21/04:30pm 12.3 9.3 11.8 97 0.3 NNW 19 24 10 13 1017.0 1017.4 2.8
21/04:00pm 12.2 8.9 11.7 97 0.3 NW 20 28 11 15 1016.9 1017.3 2.8
21/03:30pm 12.0 8.0 11.8 99 0.1 NNW 24 30 13 16 1016.8 1017.2 2.8
21/03:08pm 11.8 8.1 11.6 99 0.1 NNW 22 28 12 15 1016.7 1017.1 2.8
21/03:00pm 11.7 8.0 11.5 99 0.1 NNW 22 30 12 16 1016.7 1017.1 2.6
21/02:46pm 11.8 8.1 11.6 99 0.1 NNW 22 32 12 17 1016.6 1017.0 2.0
21/02:30pm 11.8 7.7 11.6 99 0.1 NNW 24 35 13 19 1016.6 1017.0 1.4
21/02:00pm 12.2 8.3 12.0 99 0.1 NNW 24 32 13 17 1016.6 1017.0 0.8
21/01:54pm 12.4 8.9 12.1 98 0.2 NNW 22 32 12 17 1016.6 1017.0 0.8
21/01:30pm 11.9 8.6 11.7 99 0.1 NNW 20 28 11 15 1016.8 1017.2 0.6
21/01:24pm 11.7 8.6 11.5 99 0.1 NNW 19 24 10 13 1016.9 1017.3 0.6
21/01:14pm 11.4 8.2 11.2 99 0.1 NW 19 24 10 13 1017.2 1017.6 0.6
21/01:00pm 10.9 6.2 10.7 99 0.1 NW 26 37 14 20 1017.3 1017.7 0.6
21/12:58pm 11.0 6.3 10.8 99 0.1 NW 26 37 14 20 1017.4 1017.8 0.4
21/12:30pm 11.5 7.7 11.3 99 0.1 NNW 22 30 12 16 1017.6 1018.0 0.0
21/12:17pm 11.3 6.7 11.1 99 0.1 NNW 26 33 14 18 1017.6 1018.0 0.0
21/12:03pm 11.3 6.3 11.0 98 0.2 NNW 28 35 15 19 1017.6 1018.0 0.0
21/12:00pm 11.5 6.6 11.2 98 0.2 NNW 28 35 15 19 1017.6 1018.0 0.0
21/11:30am 11.6 7.4 11.0 96 0.3 NNW 24 32 13 17 1017.9 1018.3 0.0
21/11:00am 11.3 7.1 11.1 99 0.1 NNW 24 32 13 17 1018.2 1018.6 0.0
21/10:30am 11.1 7.2 10.9 99 0.1 NNW 22 28 12 15 1018.2 1018.6 0.0

Other formats

Comma delimited format used in spreadsheet applications
http://www.bom.gov.au/fwo/IDV60801/IDV60801.94829.axf

JavaScript Object Notation format (JSON) in row-major order
http://www.bom.gov.au/fwo/IDV60801/IDV60801.94829.json

Data quality

Most of these data are generated automatically and are frequently updated. Quality checks on data are not normally performed. It is possible for incorrect values to appear. Refer to information at About Latest Weather Observations and please check the disclaimer before using these data.